createdAt,value
2023-06-15T00:01:32.121Z,38.50
2023-06-15T00:03:35.087Z,38.63
2023-06-15T00:05:38.129Z,38.83
2023-06-15T00:07:40.944Z,38.46
2023-06-15T00:09:43.802Z,38.57
2023-06-15T00:11:48.139Z,38.75
2023-06-15T00:13:50.986Z,38.88
2023-06-15T00:15:53.858Z,38.86
2023-06-15T00:17:56.732Z,38.79
2023-06-15T00:20:01.515Z,38.83
2023-06-15T00:22:04.383Z,39.16
2023-06-15T00:24:07.439Z,39.32
2023-06-15T00:26:10.377Z,39.60
2023-06-15T00:28:16.267Z,39.35
2023-06-15T00:30:20.741Z,39.29
2023-06-15T00:32:23.521Z,39.96
2023-06-15T00:34:26.469Z,40.08
2023-06-15T00:36:29.451Z,40.40
2023-06-15T00:38:32.288Z,40.12
2023-06-15T00:40:39.374Z,40.02
2023-06-15T00:42:42.641Z,40.07
2023-06-15T00:44:46.815Z,40.10
2023-06-15T00:46:50.192Z,39.71
2023-06-15T00:48:53.217Z,39.55
2023-06-15T00:50:56.290Z,39.38
2023-06-15T00:53:01.481Z,39.65
2023-06-15T00:55:04.979Z,39.76
2023-06-15T00:57:09.672Z,39.53
2023-06-15T00:59:12.624Z,39.87
2023-06-15T01:01:16.778Z,39.60
2023-06-15T01:03:21.369Z,39.80
2023-06-15T01:05:25.605Z,39.61
2023-06-15T01:07:29.229Z,39.83
2023-06-15T01:09:38.369Z,39.75
2023-06-15T01:11:42.126Z,40.09
2023-06-15T01:13:46.567Z,40.04
2023-06-15T01:15:50.781Z,40.08
2023-06-15T01:17:59.378Z,40.17
2023-06-15T01:20:06.869Z,39.90
2023-06-15T01:22:21.256Z,40.23
2023-06-15T01:24:33.112Z,40.10
2023-06-15T01:26:40.097Z,39.87
2023-06-15T01:28:48.846Z,40.17
2023-06-15T01:30:55.270Z,40.28
2023-06-15T01:32:58.534Z,40.39
2023-06-15T01:35:01.636Z,40.46
2023-06-15T01:37:06.353Z,40.53
2023-06-15T01:39:09.417Z,40.62
2023-06-15T01:41:13.362Z,41.10
2023-06-15T01:43:20.410Z,40.83
2023-06-15T01:45:24.047Z,41.13
2023-06-15T01:47:27.302Z,41.50
2023-06-15T01:49:30.768Z,41.29
2023-06-15T01:51:34.515Z,41.51
2023-06-15T01:53:38.530Z,41.77
2023-06-15T01:55:41.574Z,41.89
2023-06-15T01:57:45.406Z,42.19
2023-06-15T01:59:49.737Z,42.83
2023-06-15T02:01:52.627Z,43.31
2023-06-15T02:03:55.870Z,43.56
2023-06-15T02:05:58.940Z,43.51
2023-06-15T02:08:01.734Z,43.98
2023-06-15T02:10:05.674Z,44.03
2023-06-15T02:12:09.755Z,44.12
2023-06-15T02:14:12.642Z,44.23
2023-06-15T02:16:16.949Z,44.18
2023-06-15T02:18:19.847Z,44.51
2023-06-15T02:20:22.756Z,44.25
2023-06-15T02:22:26.352Z,44.88
2023-06-15T02:24:29.309Z,44.44
2023-06-15T02:26:32.190Z,44.77
2023-06-15T02:28:35.218Z,44.91
2023-06-15T02:30:40.761Z,45.11
2023-06-15T02:32:47.265Z,45.33
2023-06-15T02:34:51.471Z,44.98
2023-06-15T02:36:55.319Z,45.39
2023-06-15T02:38:58.190Z,45.00
2023-06-15T02:41:01.090Z,45.80
2023-06-15T02:43:03.994Z,45.50
2023-06-15T02:45:09.169Z,45.60
2023-06-15T02:47:12.121Z,46.00
2023-06-15T02:49:19.354Z,45.64
2023-06-15T02:51:22.604Z,45.88
2023-06-15T02:53:25.444Z,46.22
2023-06-15T02:55:34.110Z,46.14
2023-06-15T02:57:37.673Z,46.44
2023-06-15T02:59:52.884Z,46.47
2023-06-15T03:01:57.002Z,46.82
2023-06-15T03:03:59.945Z,46.92
2023-06-15T03:06:09.578Z,46.55
2023-06-15T03:08:14.184Z,46.67
2023-06-15T03:10:37.334Z,46.78
2023-06-15T03:12:40.195Z,46.80
2023-06-15T03:14:45.239Z,47.31
2023-06-15T03:16:49.152Z,47.73
2023-06-15T03:18:53.296Z,47.61
2023-06-15T03:20:58.302Z,47.94
2023-06-15T03:23:02.760Z,47.82
2023-06-15T03:25:06.785Z,48.31
2023-06-15T03:27:11.213Z,48.44
2023-06-15T03:29:15.764Z,48.10
2023-06-15T03:31:20.025Z,48.26
2023-06-15T03:33:25.624Z,48.77
2023-06-15T03:35:29.108Z,48.66
2023-06-15T03:37:31.964Z,48.90
2023-06-15T03:39:37.651Z,49.27
2023-06-15T03:41:41.144Z,49.14
2023-06-15T03:43:44.286Z,49.09
2023-06-15T03:45:47.286Z,48.99
2023-06-15T03:47:50.130Z,49.07
2023-06-15T03:49:53.058Z,48.79
2023-06-15T03:51:55.956Z,48.67
2023-06-15T03:53:58.903Z,48.73
2023-06-15T03:56:03.314Z,48.82
2023-06-15T03:58:06.199Z,48.75
2023-06-15T04:00:10.592Z,49.00
2023-06-15T04:02:16.086Z,49.01
2023-06-15T04:04:19.287Z,48.98
2023-06-15T04:06:23.378Z,49.00
2023-06-15T04:08:27.596Z,49.17
2023-06-15T04:10:30.410Z,49.31
2023-06-15T04:12:34.657Z,48.72
2023-06-15T04:14:37.575Z,49.00
2023-06-15T04:16:40.411Z,49.14
2023-06-15T04:18:44.620Z,49.28
2023-06-15T04:20:47.566Z,49.42
2023-06-15T04:22:50.946Z,49.28
2023-06-15T04:24:53.753Z,49.37
2023-06-15T04:26:58.539Z,49.81
2023-06-15T04:29:03.111Z,49.34
2023-06-15T04:31:10.786Z,49.29
2023-06-15T04:33:14.938Z,49.37
2023-06-15T04:35:19.804Z,49.16
2023-06-15T04:37:24.234Z,49.22
2023-06-15T04:39:28.323Z,49.27
2023-06-15T04:41:36.327Z,49.01
2023-06-15T04:43:41.615Z,48.46
2023-06-15T04:45:46.712Z,48.13
2023-06-15T04:47:54.542Z,48.41
2023-06-15T04:49:58.245Z,47.87
2023-06-15T04:52:01.354Z,47.68
2023-06-15T04:54:05.302Z,48.25
2023-06-15T04:56:08.586Z,48.11
2023-06-15T04:58:18.624Z,47.44
2023-06-15T05:00:22.909Z,47.97
2023-06-15T05:02:32.859Z,47.25
2023-06-15T05:04:35.787Z,47.19
2023-06-15T05:06:38.849Z,46.84
2023-06-15T05:08:41.672Z,46.78
2023-06-15T05:10:46.692Z,46.81
2023-06-15T05:12:53.037Z,46.19
2023-06-15T05:14:56.585Z,46.32
2023-06-15T05:17:04.241Z,46.45
2023-06-15T05:19:08.460Z,46.25
2023-06-15T05:21:13.234Z,46.22
2023-06-15T05:23:19.705Z,46.50
2023-06-15T05:25:23.722Z,45.90
2023-06-15T05:27:26.742Z,46.71
2023-06-15T05:29:30.708Z,46.52
2023-06-15T05:31:34.156Z,46.31
2023-06-15T05:33:38.063Z,46.29
2023-06-15T05:35:42.520Z,45.02
2023-06-15T05:37:45.972Z,45.29
2023-06-15T05:39:48.874Z,44.81
2023-06-15T05:41:52.285Z,44.64
2023-06-15T05:43:55.256Z,44.58
2023-06-15T05:45:58.331Z,45.09
2023-06-15T05:48:01.762Z,44.28
2023-06-15T05:50:06.498Z,43.94
2023-06-15T05:52:11.811Z,44.39
2023-06-15T05:54:14.953Z,44.33
2023-06-15T05:56:17.929Z,44.83
2023-06-15T05:58:20.821Z,44.09
2023-06-15T06:00:26.752Z,43.86
2023-06-15T06:02:33.638Z,43.63
2023-06-15T06:04:36.669Z,43.67
2023-06-15T06:06:39.564Z,44.21
2023-06-15T06:08:43.883Z,42.90
2023-06-15T06:10:46.925Z,43.73
2023-06-15T06:13:10.160Z,43.62
2023-06-15T06:15:13.159Z,43.44
2023-06-15T06:17:33.512Z,43.53
2023-06-15T06:19:39.149Z,42.56
2023-06-15T06:21:41.959Z,42.61
2023-06-15T06:23:46.563Z,42.16
2023-06-15T06:25:49.572Z,42.88
2023-06-15T06:27:52.502Z,41.19
2023-06-15T06:29:55.422Z,41.94
2023-06-15T06:31:58.283Z,42.10
2023-06-15T06:34:01.106Z,42.39
2023-06-15T06:36:04.145Z,41.46
2023-06-15T06:38:06.964Z,41.42
2023-06-15T06:40:12.041Z,41.45
2023-06-15T06:42:14.905Z,41.63
2023-06-15T06:44:18.142Z,41.57
2023-06-15T06:46:23.306Z,40.78
2023-06-15T06:48:26.444Z,40.17
2023-06-15T06:50:29.310Z,40.64
2023-06-15T06:52:32.235Z,40.41
2023-06-15T06:54:35.282Z,40.46
2023-06-15T06:56:39.505Z,40.73
2023-06-15T06:58:42.492Z,40.83
2023-06-15T07:00:45.348Z,41.05
2023-06-15T07:02:48.239Z,41.33
2023-06-15T07:04:51.113Z,41.10
2023-06-15T07:06:53.958Z,40.44
2023-06-15T07:08:56.822Z,39.72
2023-06-15T07:10:59.619Z,40.04
2023-06-15T07:13:03.852Z,39.81
2023-06-15T07:15:11.485Z,39.35
2023-06-15T07:17:14.438Z,39.21
2023-06-15T07:19:17.281Z,38.78
2023-06-15T07:21:20.156Z,39.56
2023-06-15T07:23:23.593Z,39.11
2023-06-15T07:25:26.517Z,39.34
2023-06-15T07:27:29.302Z,39.61
2023-06-15T07:29:33.488Z,39.88
2023-06-15T07:31:36.372Z,39.18
2023-06-15T07:33:39.219Z,39.48
2023-06-15T07:35:42.308Z,38.90
2023-06-15T07:37:45.133Z,37.94
2023-06-15T07:39:47.932Z,38.15
2023-06-15T07:41:50.755Z,37.91
2023-06-15T07:43:53.583Z,37.44
2023-06-15T07:45:57.939Z,37.19
2023-06-15T07:48:00.697Z,36.44
2023-06-15T07:50:03.622Z,37.01
2023-06-15T07:52:10.568Z,36.69
2023-06-15T07:54:13.960Z,37.03
2023-06-15T07:56:16.764Z,37.36
2023-06-15T07:58:19.588Z,36.99
2023-06-15T08:00:23.610Z,37.46
2023-06-15T08:02:36.328Z,37.51
2023-06-15T08:04:39.054Z,37.49
2023-06-15T08:06:42.092Z,36.16
2023-06-15T08:08:46.068Z,36.50
2023-06-15T08:10:48.971Z,34.97
2023-06-15T08:12:51.800Z,35.53
2023-06-15T08:14:55.496Z,36.05
2023-06-15T08:16:58.330Z,36.20
2023-06-15T08:19:02.527Z,36.50
2023-06-15T08:21:05.421Z,35.72
2023-06-15T08:23:08.555Z,34.95
2023-06-15T08:25:13.485Z,34.87
2023-06-15T08:27:16.543Z,35.45
2023-06-15T08:29:23.861Z,35.67
2023-06-15T08:31:27.491Z,34.47
2023-06-15T08:33:30.313Z,34.46
2023-06-15T08:35:34.556Z,35.12
2023-06-15T08:37:37.418Z,35.18
2023-06-15T08:39:40.598Z,35.43
2023-06-15T08:41:46.808Z,34.08
2023-06-15T08:43:54.279Z,32.87
2023-06-15T08:46:00.711Z,33.49
2023-06-15T08:48:07.278Z,34.28
2023-06-15T08:50:11.149Z,34.17
2023-06-15T08:52:21.867Z,33.72
2023-06-15T08:54:28.525Z,34.24
2023-06-15T08:56:32.859Z,33.84
2023-06-15T08:58:35.509Z,34.41
2023-06-15T09:00:38.418Z,33.08
2023-06-15T09:02:47.407Z,32.86
2023-06-15T09:04:51.673Z,32.96
2023-06-15T09:07:01.629Z,33.48
2023-06-15T09:09:06.193Z,33.18
2023-06-15T09:11:10.342Z,34.10
2023-06-15T09:13:18.318Z,32.82
2023-06-15T09:15:22.693Z,32.97
2023-06-15T09:17:29.483Z,32.71
2023-06-15T09:19:38.278Z,32.76
2023-06-15T09:21:43.061Z,31.90
2023-06-15T09:23:47.353Z,31.76
2023-06-15T09:25:53.945Z,30.71
2023-06-15T09:27:57.884Z,30.64
2023-06-15T09:30:05.136Z,31.22
2023-06-15T09:32:09.196Z,30.83
2023-06-15T09:34:13.765Z,30.58
2023-06-15T09:36:16.675Z,30.70
2023-06-15T09:38:19.597Z,31.11
2023-06-15T09:40:22.454Z,30.24
2023-06-15T09:42:29.568Z,30.29
2023-06-15T09:44:34.855Z,28.85
2023-06-15T09:46:39.735Z,29.75
2023-06-15T09:48:44.138Z,29.26
2023-06-15T09:50:51.532Z,30.21
2023-06-15T09:52:54.486Z,30.88
2023-06-15T09:55:00.364Z,31.00
2023-06-15T09:57:03.496Z,30.67
2023-06-15T09:59:07.705Z,30.49
2023-06-15T10:01:12.874Z,30.54
2023-06-15T10:03:20.968Z,29.33
2023-06-15T10:05:31.275Z,30.08
2023-06-15T10:07:35.986Z,28.98
2023-06-15T10:09:43.509Z,30.15
2023-06-15T10:11:51.166Z,30.41
2023-06-15T10:13:56.727Z,30.46
2023-06-15T10:16:03.540Z,29.83
2023-06-15T10:18:08.631Z,29.98
2023-06-15T10:20:17.698Z,29.72
2023-06-15T10:22:23.867Z,29.68
2023-06-15T10:24:28.185Z,28.76
2023-06-15T10:26:32.324Z,28.51
2023-06-15T10:28:40.272Z,29.49
2023-06-15T10:30:48.047Z,30.08
2023-06-15T10:32:59.593Z,29.93
2023-06-15T10:35:10.854Z,29.14
2023-06-15T10:37:25.206Z,29.66
2023-06-15T10:39:36.980Z,28.53
2023-06-15T10:41:39.970Z,28.92
2023-06-15T10:43:58.288Z,28.89
2023-06-15T10:46:02.130Z,27.70
2023-06-15T10:48:07.028Z,28.42
2023-06-15T10:50:17.430Z,29.44
2023-06-15T10:52:20.794Z,29.85
2023-06-15T10:54:24.953Z,28.90
2023-06-15T10:56:29.380Z,28.39
2023-06-15T10:58:32.836Z,28.55
2023-06-15T11:00:42.994Z,29.16
2023-06-15T11:02:51.125Z,29.79
2023-06-15T11:04:56.054Z,29.87
2023-06-15T11:07:03.429Z,28.73
2023-06-15T11:09:08.759Z,28.57
2023-06-15T11:11:13.151Z,28.41
2023-06-15T11:13:26.014Z,29.30
2023-06-15T11:15:33.417Z,28.81
2023-06-15T11:18:00.595Z,29.30
2023-06-15T11:20:09.500Z,29.48
2023-06-15T11:22:13.130Z,29.02
2023-06-15T11:24:17.236Z,28.95
2023-06-15T11:26:20.171Z,29.06
2023-06-15T11:28:36.720Z,29.33
2023-06-15T11:30:42.560Z,28.13
2023-06-15T11:32:45.733Z,28.00
2023-06-15T11:34:48.593Z,28.24
2023-06-15T11:36:52.766Z,27.84
2023-06-15T11:38:55.497Z,26.70
2023-06-15T11:41:02.691Z,26.47
2023-06-15T11:43:06.135Z,28.04
2023-06-15T11:45:16.423Z,27.78
2023-06-15T11:47:19.773Z,26.90
2023-06-15T11:49:23.494Z,26.86
2023-06-15T11:51:27.087Z,26.83
2023-06-15T11:53:34.179Z,27.44
2023-06-15T11:55:43.916Z,27.83
2023-06-15T11:57:47.903Z,27.46
2023-06-15T11:59:50.937Z,27.82
2023-06-15T12:01:54.587Z,27.62
2023-06-15T12:04:05.995Z,27.56
2023-06-15T12:06:09.115Z,27.57
2023-06-15T12:08:12.588Z,27.34
2023-06-15T12:10:19.275Z,27.61
2023-06-15T12:12:30.291Z,27.12
2023-06-15T12:14:33.110Z,27.32
2023-06-15T12:16:36.276Z,27.11
2023-06-15T12:18:39.184Z,27.04
2023-06-15T12:20:42.148Z,27.33
2023-06-15T12:22:46.243Z,26.77
2023-06-15T12:24:51.638Z,26.67
2023-06-15T12:26:58.851Z,26.68
2023-06-15T12:29:02.997Z,26.86
2023-06-15T12:31:12.358Z,27.29
2023-06-15T12:33:31.997Z,26.47
2023-06-15T12:35:38.786Z,26.75
2023-06-15T12:37:50.736Z,27.20
2023-06-15T12:39:55.478Z,26.64
2023-06-15T12:42:03.666Z,25.82
2023-06-15T12:44:07.018Z,25.17
2023-06-15T12:46:10.353Z,25.54
2023-06-15T12:48:13.347Z,25.21
2023-06-15T12:50:16.456Z,25.25
2023-06-15T12:52:19.742Z,25.47
2023-06-15T12:54:22.524Z,25.92
2023-06-15T12:56:27.878Z,25.71
2023-06-15T12:58:32.153Z,25.55
2023-06-15T13:00:34.893Z,25.24
2023-06-15T13:02:37.972Z,26.10
2023-06-15T13:04:41.099Z,25.70
2023-06-15T13:06:44.864Z,26.60
2023-06-15T13:08:48.203Z,25.74
2023-06-15T13:10:51.062Z,25.11
2023-06-15T13:12:54.154Z,25.00
2023-06-15T13:14:58.430Z,27.26
2023-06-15T13:17:01.130Z,27.13
2023-06-15T13:19:03.991Z,27.72
2023-06-15T13:21:06.933Z,26.00
2023-06-15T13:23:09.810Z,24.46
2023-06-15T13:25:12.719Z,25.42
2023-06-15T13:27:18.369Z,25.43
2023-06-15T13:29:23.618Z,23.63
2023-06-15T13:31:28.060Z,24.62
2023-06-15T13:33:30.954Z,23.74
2023-06-15T13:35:33.789Z,24.91
2023-06-15T13:37:37.964Z,24.38
2023-06-15T13:40:07.387Z,24.62
2023-06-15T13:42:11.921Z,24.47
2023-06-15T13:44:14.649Z,24.76
2023-06-15T13:46:19.502Z,25.32
2023-06-15T13:48:23.962Z,24.61
2023-06-15T13:50:28.604Z,24.87
2023-06-15T13:52:31.834Z,25.02
2023-06-15T13:54:34.683Z,24.97
2023-06-15T13:56:37.593Z,25.71
2023-06-15T13:58:40.426Z,24.54
2023-06-15T14:00:43.248Z,24.95
2023-06-15T14:02:46.866Z,25.57
2023-06-15T14:04:51.545Z,24.84
2023-06-15T14:06:54.421Z,24.84
2023-06-15T14:08:57.325Z,23.69
2023-06-15T14:11:00.272Z,24.11
2023-06-15T14:13:03.156Z,24.24
2023-06-15T14:15:10.283Z,24.17
2023-06-15T14:17:13.842Z,24.96
2023-06-15T14:19:21.433Z,24.39
2023-06-15T14:21:26.269Z,24.05
2023-06-15T14:23:29.251Z,24.04
2023-06-15T14:25:32.113Z,24.54
2023-06-15T14:27:35.025Z,25.37
2023-06-15T14:29:37.830Z,24.90
2023-06-15T14:31:46.390Z,24.39
2023-06-15T14:33:49.412Z,23.63
2023-06-15T14:35:52.242Z,24.06
2023-06-15T14:37:56.447Z,23.20
2023-06-15T14:39:59.130Z,23.72
2023-06-15T14:42:02.006Z,23.48
2023-06-15T14:44:08.706Z,22.89
2023-06-15T14:46:11.610Z,23.99
2023-06-15T14:48:14.527Z,24.47
2023-06-15T14:50:17.938Z,24.72
2023-06-15T14:52:21.356Z,23.76
2023-06-15T14:54:25.568Z,24.45
2023-06-15T14:56:29.070Z,24.92
2023-06-15T14:58:31.981Z,24.41
2023-06-15T15:00:34.801Z,25.23
2023-06-15T15:02:37.747Z,24.39
2023-06-15T15:04:40.847Z,24.20
2023-06-15T15:06:43.694Z,24.17
2023-06-15T15:08:46.965Z,24.38
2023-06-15T15:10:51.164Z,23.07
2023-06-15T15:12:53.927Z,23.86
2023-06-15T15:14:56.853Z,23.88
2023-06-15T15:17:00.027Z,23.73
2023-06-15T15:19:03.810Z,23.93
2023-06-15T15:21:07.535Z,24.57
2023-06-15T15:23:10.407Z,24.35
2023-06-15T15:25:13.270Z,24.26
2023-06-15T15:27:17.564Z,24.11
2023-06-15T15:29:20.342Z,23.97
2023-06-15T15:31:23.240Z,24.38
2023-06-15T15:33:26.223Z,24.89
2023-06-15T15:35:29.966Z,24.32
2023-06-15T15:37:32.811Z,25.27
2023-06-15T15:39:35.618Z,25.22
2023-06-15T15:41:38.489Z,25.38
2023-06-15T15:43:42.743Z,25.04
2023-06-15T15:45:45.643Z,25.82
2023-06-15T15:47:48.466Z,25.70
2023-06-15T15:49:51.394Z,25.18
2023-06-15T15:51:54.216Z,25.90
2023-06-15T15:53:57.083Z,24.65
2023-06-15T15:55:59.934Z,24.41
2023-06-15T15:58:03.106Z,24.90
2023-06-15T16:00:09.430Z,23.46
2023-06-15T16:02:17.782Z,23.34
2023-06-15T16:04:20.578Z,23.62
2023-06-15T16:06:23.421Z,23.29
2023-06-15T16:08:26.282Z,24.04
2023-06-15T16:10:29.199Z,24.42
2023-06-15T16:12:32.049Z,23.94
2023-06-15T16:14:34.999Z,24.64
2023-06-15T16:16:39.263Z,24.95
2023-06-15T16:18:42.099Z,24.93
2023-06-15T16:20:44.954Z,24.57
2023-06-15T16:22:47.773Z,25.46
2023-06-15T16:24:50.790Z,25.05
2023-06-15T16:26:53.577Z,24.80
2023-06-15T16:28:58.282Z,24.99
2023-06-15T16:31:01.569Z,25.02
2023-06-15T16:33:05.800Z,25.50
2023-06-15T16:35:09.710Z,25.57
2023-06-15T16:37:12.531Z,25.45
2023-06-15T16:39:37.188Z,25.41
2023-06-15T16:41:40.061Z,25.50
2023-06-15T16:43:43.716Z,25.66
2023-06-15T16:45:46.610Z,25.04
2023-06-15T16:47:49.511Z,24.77
2023-06-15T16:49:53.752Z,24.94
2023-06-15T16:51:56.444Z,24.78
2023-06-15T16:53:59.312Z,25.67
2023-06-15T16:56:02.292Z,25.97
2023-06-15T16:58:05.280Z,26.30
2023-06-15T17:00:09.551Z,26.87
2023-06-15T17:02:13.267Z,27.09
2023-06-15T17:04:16.050Z,26.49
2023-06-15T17:06:20.243Z,25.59
2023-06-15T17:08:22.913Z,25.52
2023-06-15T17:10:26.267Z,25.98
2023-06-15T17:12:29.296Z,25.75
2023-06-15T17:14:32.214Z,26.66
2023-06-15T17:16:35.178Z,26.51
2023-06-15T17:18:38.172Z,26.42
2023-06-15T17:20:41.009Z,25.94
2023-06-15T17:22:45.145Z,26.07
2023-06-15T17:24:48.523Z,26.41
2023-06-15T17:26:52.060Z,25.96
2023-06-15T17:28:54.939Z,25.75
2023-06-15T17:30:57.820Z,25.17
2023-06-15T17:33:00.783Z,25.55
2023-06-15T17:35:04.606Z,25.93
2023-06-15T17:37:07.536Z,26.24
2023-06-15T17:39:12.522Z,26.16
2023-06-15T17:41:15.748Z,25.88
2023-06-15T17:43:18.934Z,25.62
2023-06-15T17:45:21.790Z,26.29
2023-06-15T17:47:25.223Z,25.99
2023-06-15T17:49:28.201Z,25.54
2023-06-15T17:51:31.078Z,25.67
2023-06-15T17:53:33.872Z,25.73
2023-06-15T17:55:38.886Z,26.56
2023-06-15T17:57:42.459Z,25.72
2023-06-15T17:59:45.344Z,26.31
2023-06-15T18:01:49.531Z,25.92
2023-06-15T18:03:52.831Z,26.28
2023-06-15T18:05:55.884Z,26.15
2023-06-15T18:07:58.666Z,26.63
2023-06-15T18:10:01.582Z,26.32
2023-06-15T18:12:07.026Z,26.39
2023-06-15T18:14:10.930Z,26.51
2023-06-15T18:16:15.382Z,26.58
2023-06-15T18:18:18.774Z,26.94
2023-06-15T18:20:21.790Z,26.69
2023-06-15T18:22:24.686Z,26.74
2023-06-15T18:24:27.647Z,27.39
2023-06-15T18:26:30.536Z,26.77
2023-06-15T18:28:37.783Z,27.30
2023-06-15T18:30:41.467Z,26.11
2023-06-15T18:32:44.412Z,26.29
2023-06-15T18:34:50.693Z,26.95
2023-06-15T18:36:53.538Z,26.99
2023-06-15T18:38:56.324Z,27.50
2023-06-15T18:40:59.341Z,27.07
2023-06-15T18:43:02.583Z,27.49
2023-06-15T18:45:08.480Z,26.98
2023-06-15T18:47:17.065Z,27.23
2023-06-15T18:49:20.002Z,27.30
2023-06-15T18:51:22.870Z,27.56
2023-06-15T18:53:28.324Z,27.31
2023-06-15T18:55:31.768Z,27.14
2023-06-15T18:57:34.729Z,27.53
2023-06-15T18:59:37.626Z,27.86
2023-06-15T19:01:42.586Z,27.51
2023-06-15T19:03:45.701Z,27.22
2023-06-15T19:05:51.124Z,27.83
2023-06-15T19:07:54.007Z,27.93
2023-06-15T19:09:57.778Z,28.64
2023-06-15T19:12:00.696Z,29.03
2023-06-15T19:14:03.778Z,28.06
2023-06-15T19:16:06.956Z,27.85
2023-06-15T19:18:11.491Z,28.09
2023-06-15T19:20:14.486Z,28.53
2023-06-15T19:22:17.369Z,28.56
2023-06-15T19:24:24.295Z,28.07
2023-06-15T19:26:27.556Z,28.47
2023-06-15T19:28:30.484Z,28.00
2023-06-15T19:30:33.351Z,27.85
2023-06-15T19:32:36.353Z,27.45
2023-06-15T19:34:40.690Z,27.62
2023-06-15T19:36:43.410Z,28.44
2023-06-15T19:39:01.245Z,28.75
2023-06-15T19:41:04.601Z,28.34
2023-06-15T19:43:07.471Z,28.13
2023-06-15T19:45:10.935Z,28.14
2023-06-15T19:47:14.139Z,27.64
2023-06-15T19:49:17.467Z,28.00
2023-06-15T19:51:21.803Z,27.25
2023-06-15T19:53:24.472Z,27.88
2023-06-15T19:55:27.411Z,27.64
2023-06-15T19:57:30.486Z,27.41
2023-06-15T19:59:33.318Z,27.59
2023-06-15T20:01:36.255Z,27.65
2023-06-15T20:03:39.268Z,27.46
2023-06-15T20:05:42.227Z,27.72
2023-06-15T20:07:46.525Z,27.40
2023-06-15T20:09:49.248Z,27.60
2023-06-15T20:11:52.139Z,27.54
2023-06-15T20:13:54.933Z,27.29
2023-06-15T20:15:57.890Z,27.67
2023-06-15T20:18:00.904Z,28.20
2023-06-15T20:20:04.728Z,27.91
2023-06-15T20:22:08.574Z,28.34
2023-06-15T20:24:13.385Z,28.42
2023-06-15T20:26:17.695Z,28.11
2023-06-15T20:28:21.023Z,28.53
2023-06-15T20:30:23.889Z,28.17
2023-06-15T20:32:28.704Z,28.12
2023-06-15T20:34:31.922Z,28.20
2023-06-15T20:36:34.740Z,28.43
2023-06-15T20:38:37.558Z,28.58
2023-06-15T20:40:41.740Z,28.50
2023-06-15T20:42:44.651Z,28.85
2023-06-15T20:44:50.844Z,29.29
2023-06-15T20:46:53.771Z,29.31
2023-06-15T20:48:56.686Z,29.67
2023-06-15T20:51:01.272Z,29.66
2023-06-15T20:53:05.513Z,29.53
2023-06-15T20:55:08.355Z,29.48
2023-06-15T20:57:12.603Z,29.63
2023-06-15T20:59:15.352Z,29.92
2023-06-15T21:01:18.283Z,29.96
2023-06-15T21:03:21.208Z,29.37
2023-06-15T21:05:24.772Z,29.33
2023-06-15T21:07:27.633Z,29.85
2023-06-15T21:09:30.434Z,29.66
2023-06-15T21:11:33.456Z,30.64
2023-06-15T21:13:37.896Z,30.84
2023-06-15T21:15:40.992Z,31.09
2023-06-15T21:17:45.370Z,31.16
2023-06-15T21:19:48.070Z,31.13
2023-06-15T21:21:51.715Z,31.66
2023-06-15T21:23:56.812Z,31.56
2023-06-15T21:25:59.687Z,31.49
2023-06-15T21:28:02.467Z,31.48
2023-06-15T21:30:09.007Z,31.42
2023-06-15T21:32:11.858Z,31.40
2023-06-15T21:34:14.714Z,31.58
2023-06-15T21:36:17.566Z,31.65
2023-06-15T21:38:21.937Z,31.56
2023-06-15T21:40:24.879Z,31.99
2023-06-15T21:42:27.752Z,32.09
2023-06-15T21:44:30.976Z,32.34
2023-06-15T21:46:35.222Z,32.37
2023-06-15T21:48:38.122Z,32.70
2023-06-15T21:50:40.993Z,33.14
2023-06-15T21:52:47.413Z,33.57
2023-06-15T21:54:50.488Z,33.70
2023-06-15T21:56:53.486Z,34.09
2023-06-15T21:58:56.336Z,34.01
2023-06-15T22:00:59.200Z,34.82
2023-06-15T22:03:03.717Z,35.27
2023-06-15T22:05:08.260Z,35.66
2023-06-15T22:07:11.244Z,35.33
2023-06-15T22:09:14.034Z,35.15
2023-06-15T22:11:16.867Z,34.98
2023-06-15T22:13:19.789Z,35.22
2023-06-15T22:15:22.869Z,35.75
2023-06-15T22:17:26.793Z,35.42
2023-06-15T22:19:31.133Z,35.77
2023-06-15T22:21:33.865Z,35.84
2023-06-15T22:23:36.936Z,35.93
2023-06-15T22:25:51.280Z,36.02
2023-06-15T22:27:58.485Z,35.75
2023-06-15T22:30:01.548Z,35.84
2023-06-15T22:32:09.480Z,36.13
2023-06-15T22:34:12.375Z,36.28
2023-06-15T22:36:16.633Z,36.45
2023-06-15T22:38:19.583Z,35.79
2023-06-15T22:40:22.517Z,36.12
2023-06-15T22:42:25.382Z,37.25
2023-06-15T22:44:29.415Z,37.61
2023-06-15T22:46:32.366Z,38.29
2023-06-15T22:48:38.357Z,37.85
2023-06-15T22:50:41.215Z,37.37
2023-06-15T22:52:45.492Z,37.62
2023-06-15T22:54:50.677Z,37.73
2023-06-15T22:56:53.773Z,37.27
2023-06-15T22:58:56.629Z,35.76
2023-06-15T23:00:59.570Z,36.26
2023-06-15T23:03:02.519Z,36.70
2023-06-15T23:05:07.315Z,36.88
2023-06-15T23:07:10.960Z,37.78
2023-06-15T23:09:15.464Z,38.99
2023-06-15T23:11:18.826Z,39.44
2023-06-15T23:13:22.641Z,39.52
2023-06-15T23:15:25.824Z,39.87
2023-06-15T23:17:30.334Z,40.17
2023-06-15T23:19:33.316Z,40.07
2023-06-15T23:21:40.346Z,40.08
2023-06-15T23:23:46.083Z,40.51
2023-06-15T23:25:50.865Z,40.74
2023-06-15T23:27:55.846Z,40.96
2023-06-15T23:29:59.945Z,42.13
2023-06-15T23:32:02.788Z,43.16
2023-06-15T23:34:05.616Z,43.48
2023-06-15T23:36:09.505Z,43.44
2023-06-15T23:38:12.623Z,42.81
2023-06-15T23:40:15.818Z,41.56
2023-06-15T23:42:20.210Z,40.92
2023-06-15T23:44:23.100Z,40.37
2023-06-15T23:46:26.054Z,40.28
2023-06-15T23:48:28.940Z,40.24
2023-06-15T23:50:31.847Z,40.68
2023-06-15T23:52:34.757Z,41.26
2023-06-15T23:54:37.623Z,41.63
2023-06-15T23:56:40.442Z,42.27
2023-06-15T23:58:44.651Z,42.67
